Time;durP1;ratioP1;P1;durP2;ratioP2;P2;SDS_P1;SDS_P2;PMS_P1;PMS_P2;Temp;Humidity;BMP_temperature;BMP_pressure;BME280_temperature;BME280_humidity;BME280_pressure;Samples;Min_cycle;Max_cycle;Signal;HPM_P1;HPM_P2
2023/10/22 00:00:31;;;;;;;4.78;1.20;;;;;;;-146.61;100.00;58846.50;5116989;27;20066;-77
2023/10/22 00:03:18;;;;;;;1.95;1.08;;;;;;;-146.61;100.00;58846.50;5113865;27;20062;-75
2023/10/22 00:06:05;;;;;;;3.55;1.20;;;;;;;-146.61;100.00;58846.50;5117255;27;20111;-77
2023/10/22 00:08:52;;;;;;;1.38;1.10;;;;;;;-146.61;100.00;58846.50;5118385;27;20039;-79
2023/10/22 00:11:38;;;;;;;1.90;1.00;;;;;;;-146.61;100.00;58846.50;5113457;27;20055;-78
2023/10/22 00:14:25;;;;;;;3.67;0.95;;;;;;;-146.61;100.00;58846.50;5120689;27;20035;-78
2023/10/22 00:17:11;;;;;;;4.25;0.90;;;;;;;-146.61;100.00;58846.50;5115911;27;20039;-76
2023/10/22 00:19:58;;;;;;;3.80;1.10;;;;;;;-146.61;100.00;58846.50;5117832;27;20039;-76
2023/10/22 00:22:45;;;;;;;2.05;0.82;;;;;;;-146.61;100.00;58846.50;5126184;27;20035;-76
2023/10/22 00:25:35;;;;;;;1.25;0.70;;;;;;;-146.61;100.00;58846.50;5120565;27;20051;-76
2023/10/22 00:28:22;;;;;;;3.42;1.13;;;;;;;-146.61;100.00;58846.50;5117451;27;20047;-76
2023/10/22 00:31:11;;;;;;;2.30;0.85;;;;;;;-146.61;100.00;58846.50;5118471;27;20047;-79
2023/10/22 00:33:57;;;;;;;2.15;0.68;;;;;;;-146.61;100.00;58846.50;5116822;27;20048;-80
2023/10/22 00:36:44;;;;;;;5.78;1.05;;;;;;;-146.61;100.00;58846.50;5119404;27;20144;-75
2023/10/22 00:39:31;;;;;;;3.47;1.83;;;;;;;-146.61;100.00;58846.50;5120219;27;20084;-79
2023/10/22 00:42:22;;;;;;;3.20;1.13;;;;;;;-146.61;100.00;58846.50;5116859;27;20507;-76
2023/10/22 00:45:09;;;;;;;2.65;1.17;;;;;;;-146.61;100.00;58846.50;5115969;27;20574;-79
2023/10/22 00:47:55;;;;;;;2.88;1.10;;;;;;;-146.61;100.00;58846.50;5118300;27;20047;-79
2023/10/22 00:50:42;;;;;;;1.88;0.70;;;;;;;-146.61;100.00;58846.50;5116027;27;20043;-78
2023/10/22 00:53:31;;;;;;;3.85;1.25;;;;;;;-146.61;100.00;58846.50;5120027;27;20107;-77
2023/10/22 00:56:20;;;;;;;1.65;0.70;;;;;;;-146.61;100.00;58846.50;5122483;27;20047;-78
2023/10/22 00:59:06;;;;;;;4.28;0.90;;;;;;;-146.61;100.00;58846.50;5118742;27;20047;-77
2023/10/22 01:01:53;;;;;;;2.33;0.77;;;;;;;-146.61;100.00;58846.50;5119423;27;20402;-79
2023/10/22 01:04:41;;;;;;;2.50;0.75;;;;;;;-146.61;100.00;58846.50;5118643;27;20043;-75
2023/10/22 01:07:27;;;;;;;1.67;0.50;;;;;;;-146.61;100.00;58846.50;5119738;27;20050;-76
2023/10/22 01:10:14;;;;;;;2.58;1.67;;;;;;;-146.61;100.00;58846.50;5116589;27;20582;-77
2023/10/22 01:13:03;;;;;;;3.83;0.80;;;;;;;-146.61;100.00;58846.50;5114047;27;20075;-77
2023/10/22 01:15:50;;;;;;;3.45;0.60;;;;;;;-146.61;100.00;58846.50;5111301;27;20039;-78
2023/10/22 01:18:37;;;;;;;3.47;1.30;;;;;;;-146.61;100.00;58846.50;5113953;27;20073;-76
2023/10/22 01:21:25;;;;;;;3.42;0.80;;;;;;;-146.61;100.00;58846.50;5113277;27;20039;-76
2023/10/22 01:24:11;;;;;;;1.70;0.60;;;;;;;-146.61;100.00;58846.50;5112395;27;20058;-77
2023/10/22 01:26:59;;;;;;;3.90;0.47;;;;;;;-146.61;100.00;58846.50;5122604;27;21002;-78
2023/10/22 01:29:45;;;;;;;2.95;0.90;;;;;;;-146.61;100.00;58846.50;5115589;27;20739;-76
2023/10/22 01:32:33;;;;;;;1.30;0.52;;;;;;;-146.61;100.00;58846.50;5113368;27;20042;-77
2023/10/22 01:35:20;;;;;;;4.78;0.93;;;;;;;-146.61;100.00;58846.50;5112243;27;20180;-76
2023/10/22 01:38:08;;;;;;;1.67;0.73;;;;;;;-146.61;100.00;58846.50;5120441;27;20750;-79
2023/10/22 01:40:55;;;;;;;3.85;0.90;;;;;;;-146.61;100.00;58846.50;5116053;27;20654;-78
2023/10/22 01:43:41;;;;;;;1.55;0.68;;;;;;;-146.61;100.00;58846.50;5118116;27;20682;-78
2023/10/22 01:46:28;;;;;;;2.17;0.80;;;;;;;-146.61;100.00;58846.50;5121560;27;20043;-77
2023/10/22 01:49:15;;;;;;;1.15;0.82;;;;;;;-146.61;100.00;58846.50;5117869;27;20734;-77
2023/10/22 01:52:02;;;;;;;5.55;1.02;;;;;;;-146.61;100.00;58846.50;5114283;27;20070;-79
2023/10/22 01:54:49;;;;;;;1.23;0.60;;;;;;;-146.61;100.00;58846.50;5116561;27;20635;-77
2023/10/22 01:57:36;;;;;;;2.70;0.65;;;;;;;-146.61;100.00;58846.50;5122114;27;20556;-80
2023/10/22 02:00:23;;;;;;;1.85;0.73;;;;;;;-146.61;100.00;58846.50;5117471;27;20054;-79
2023/10/22 02:03:09;;;;;;;3.15;1.00;;;;;;;-146.61;100.00;58846.50;5112111;27;20085;-79
2023/10/22 02:05:57;;;;;;;1.63;0.60;;;;;;;-146.61;100.00;58846.50;5118984;27;20146;-78
2023/10/22 02:08:46;;;;;;;3.58;0.57;;;;;;;-146.61;100.00;58846.50;5120101;27;20043;-76
2023/10/22 02:11:36;;;;;;;4.45;2.15;;;;;;;-146.61;100.00;58846.50;5111811;27;20670;-78
2023/10/22 02:14:23;;;;;;;3.58;2.25;;;;;;;-146.61;100.00;58846.50;5117861;27;20043;-76
2023/10/22 02:17:10;;;;;;;4.97;0.65;;;;;;;-146.61;100.00;58846.50;5113575;27;20542;-78
2023/10/22 02:19:56;;;;;;;2.30;0.60;;;;;;;-146.61;100.00;58846.50;5114256;27;20054;-77
2023/10/22 02:22:43;;;;;;;4.47;0.60;;;;;;;-146.61;100.00;58846.50;5112805;27;20046;-77
2023/10/22 02:25:30;;;;;;;1.30;0.80;;;;;;;-146.61;100.00;58846.50;5110320;27;20582;-76
2023/10/22 02:28:20;;;;;;;4.53;0.80;;;;;;;-146.61;100.00;58846.50;5116360;27;20058;-77
2023/10/22 02:31:06;;;;;;;0.45;0.43;;;;;;;-146.61;100.00;58846.50;5116796;27;20047;-76
2023/10/22 02:34:08;;;;;;;0.73;0.65;;;;;;;-146.61;100.00;58846.50;5118121;27;20043;-77
2023/10/22 02:36:54;;;;;;;4.68;0.80;;;;;;;-146.61;100.00;58846.50;5116757;27;20051;-77
2023/10/22 02:39:41;;;;;;;1.13;0.82;;;;;;;-146.61;100.00;58846.50;5118612;27;20051;-77
2023/10/22 02:42:28;;;;;;;2.80;1.17;;;;;;;-146.61;100.00;58846.50;5119819;27;20660;-77
2023/10/22 02:45:15;;;;;;;2.08;0.68;;;;;;;-146.61;100.00;58846.50;5118735;27;20046;-78
2023/10/22 02:48:01;;;;;;;1.92;0.60;;;;;;;-146.61;100.00;58846.50;5115107;27;20050;-77
2023/10/22 02:50:51;;;;;;;0.70;0.50;;;;;;;-146.61;100.00;58846.50;5118155;27;20781;-76
2023/10/22 02:53:38;;;;;;;4.05;0.65;;;;;;;-146.61;100.00;58846.50;5113614;27;20050;-79
2023/10/22 02:56:25;;;;;;;1.83;0.38;;;;;;;-146.61;100.00;58846.50;5115638;27;21359;-79
2023/10/22 02:59:11;;;;;;;1.88;0.32;;;;;;;-146.61;100.00;58846.50;5114844;27;20130;-76
2023/10/22 03:01:58;;;;;;;2.88;0.63;;;;;;;-146.61;100.00;58846.50;5118706;27;20561;-77
2023/10/22 03:04:45;;;;;;;0.85;0.52;;;;;;;-146.61;100.00;58846.50;5116340;27;20057;-77
2023/10/22 03:07:32;;;;;;;2.85;0.75;;;;;;;-146.61;100.00;58846.50;5116981;27;20136;-77
2023/10/22 03:10:18;;;;;;;1.63;0.65;;;;;;;-146.61;100.00;58846.50;5113545;27;20189;-76
2023/10/22 03:13:06;;;;;;;0.68;0.40;;;;;;;-146.61;100.00;58846.50;5111821;27;20039;-79
2023/10/22 03:15:53;;;;;;;1.80;0.30;;;;;;;-146.61;100.00;58846.50;5112979;27;20109;-77
2023/10/22 03:18:42;;;;;;;1.52;0.70;;;;;;;-146.61;100.00;58846.50;5116962;27;20043;-78
2023/10/22 03:21:33;;;;;;;0.50;0.32;;;;;;;-146.61;100.00;58846.50;5117579;27;20039;-77
2023/10/22 03:24:22;;;;;;;1.42;0.60;;;;;;;-146.61;100.00;58846.50;5113664;27;20465;-80
2023/10/22 03:27:10;;;;;;;1.17;0.25;;;;;;;-146.61;100.00;58846.50;5113564;27;20047;-78
2023/10/22 03:29:57;;;;;;;1.15;0.60;;;;;;;-146.61;100.00;58846.50;5108302;27;20089;-79
2023/10/22 03:32:44;;;;;;;1.65;0.40;;;;;;;-146.61;100.00;58846.50;5113829;27;20176;-79
2023/10/22 03:35:31;;;;;;;1.67;0.38;;;;;;;-146.61;100.00;58846.50;5119615;27;20663;-81
2023/10/22 03:38:18;;;;;;;1.65;0.40;;;;;;;-146.61;100.00;58846.50;5116819;27;20051;-76
2023/10/22 03:41:06;;;;;;;3.78;0.68;;;;;;;-146.61;100.00;58846.50;5121630;27;20658;-78
2023/10/22 03:43:52;;;;;;;2.92;0.60;;;;;;;-146.61;100.00;58846.50;5116945;27;20047;-79
2023/10/22 03:46:39;;;;;;;3.33;1.92;;;;;;;-146.61;100.00;58846.50;5111070;27;20055;-79
2023/10/22 03:49:26;;;;;;;2.72;0.32;;;;;;;-146.61;100.00;58846.50;5113134;27;20058;-80
2023/10/22 03:52:13;;;;;;;4.88;0.52;;;;;;;-146.61;100.00;58846.50;5113766;27;20090;-80
2023/10/22 03:55:00;;;;;;;1.20;0.20;;;;;;;-146.61;100.00;58846.50;5119163;27;20047;-77
2023/10/22 03:57:46;;;;;;;5.85;0.55;;;;;;;-146.61;100.00;58846.50;5115260;27;20091;-78
2023/10/22 04:00:33;;;;;;;2.78;0.63;;;;;;;-146.61;100.00;58846.50;5115287;27;20046;-77
2023/10/22 04:03:20;;;;;;;1.58;0.50;;;;;;;-146.61;100.00;58846.50;5110197;27;20039;-80
2023/10/22 04:06:07;;;;;;;0.63;0.40;;;;;;;-146.61;100.00;58846.50;5109818;27;20130;-79
2023/10/22 04:08:54;;;;;;;2.13;0.45;;;;;;;-146.61;100.00;58846.50;5109323;27;20132;-78
2023/10/22 04:11:40;;;;;;;2.38;0.40;;;;;;;-146.61;100.00;58846.50;5110612;27;20131;-79
2023/10/22 04:14:27;;;;;;;1.65;0.75;;;;;;;-146.61;100.00;58846.50;5112768;27;20043;-78
2023/10/22 04:17:14;;;;;;;1.67;0.47;;;;;;;-146.61;100.00;58846.50;5112602;27;20047;-76
2023/10/22 04:20:00;;;;;;;1.17;0.28;;;;;;;-146.61;100.00;58846.50;5116961;27;20049;-77
2023/10/22 04:22:47;;;;;;;2.80;0.50;;;;;;;-146.61;100.00;58846.50;5115689;27;20039;-78
2023/10/22 04:25:40;;;;;;;3.22;0.40;;;;;;;-146.61;100.00;58846.50;5112497;27;20043;-79
2023/10/22 04:28:26;;;;;;;0.50;0.40;;;;;;;-146.61;100.00;58846.50;5108865;27;20123;-78
2023/10/22 04:31:13;;;;;;;2.08;0.40;;;;;;;-146.61;100.00;58846.50;5114065;27;20043;-78
2023/10/22 04:34:00;;;;;;;1.92;0.60;;;;;;;-146.61;100.00;58846.50;5116039;27;20121;-78
2023/10/22 04:36:47;;;;;;;0.52;0.50;;;;;;;-146.61;100.00;58846.50;5109905;27;20046;-78
2023/10/22 04:39:34;;;;;;;4.55;0.52;;;;;;;-146.61;100.00;58846.50;5108989;27;20492;-77
2023/10/22 04:42:21;;;;;;;3.30;0.57;;;;;;;-146.61;100.00;58846.50;5116277;27;20096;-79
2023/10/22 04:45:09;;;;;;;1.55;0.40;;;;;;;-146.61;100.00;58846.50;5111969;27;20047;-78
2023/10/22 04:47:55;;;;;;;2.40;0.60;;;;;;;-146.61;100.00;58846.50;5113490;27;20590;-79
2023/10/22 04:50:44;;;;;;;5.93;0.85;;;;;;;-146.61;100.00;58846.50;5118777;27;20047;-77
2023/10/22 04:53:31;;;;;;;4.28;0.45;;;;;;;-146.61;100.00;58846.50;5122501;27;20092;-78
2023/10/22 04:56:17;;;;;;;1.08;0.40;;;;;;;-146.61;100.00;58846.50;5125679;27;20687;-77
2023/10/22 04:59:04;;;;;;;3.78;0.28;;;;;;;-146.61;100.00;58846.50;5117935;27;20134;-77
2023/10/22 05:01:51;;;;;;;1.67;0.80;;;;;;;-146.61;100.00;58846.50;5115897;27;20077;-79
2023/10/22 05:04:38;;;;;;;1.63;0.40;;;;;;;-146.61;100.00;58846.50;5115743;27;20043;-79
2023/10/22 05:07:24;;;;;;;1.60;0.40;;;;;;;-146.61;100.00;58846.50;5114392;27;20043;-77
2023/10/22 05:10:11;;;;;;;1.95;0.47;;;;;;;-146.61;100.00;58846.50;5112536;27;20552;-77
2023/10/22 05:13:00;;;;;;;1.70;0.60;;;;;;;-146.61;100.00;58846.50;5099928;27;20035;-77
2023/10/22 05:15:54;;;;;;;3.00;0.47;;;;;;;-146.61;100.00;58846.50;5099341;27;20069;-78
2023/10/22 05:18:41;;;;;;;1.80;0.55;;;;;;;-146.61;100.00;58846.50;5099471;27;20039;-76
2023/10/22 05:21:35;;;;;;;0.60;0.50;;;;;;;-146.61;100.00;58846.50;5100385;27;20088;-80
2023/10/22 05:24:21;;;;;;;2.55;0.77;;;;;;;-146.61;100.00;58846.50;5097132;27;20668;-78
2023/10/22 05:27:08;;;;;;;4.47;0.82;;;;;;;-146.61;100.00;58846.50;5099526;27;20506;-80
2023/10/22 05:29:55;;;;;;;3.45;0.70;;;;;;;-146.61;100.00;58846.50;5095618;27;20048;-77
2023/10/22 05:32:42;;;;;;;2.88;0.70;;;;;;;-146.61;100.00;58846.50;5098571;27;20635;-78
2023/10/22 05:35:28;;;;;;;1.92;0.50;;;;;;;-146.61;100.00;58846.50;5095797;27;20046;-79
2023/10/22 05:38:15;;;;;;;0.73;0.68;;;;;;;-146.61;100.00;58846.50;5101198;27;20047;-76
2023/10/22 05:41:02;;;;;;;2.80;0.55;;;;;;;-146.61;100.00;58846.50;5099079;27;20063;-78
2023/10/22 05:43:55;;;;;;;1.15;0.60;;;;;;;-146.61;100.00;58846.50;5097342;27;20046;-77
2023/10/22 05:46:42;;;;;;;2.58;0.63;;;;;;;-146.61;100.00;58846.50;5096209;27;20146;-78
2023/10/22 05:49:29;;;;;;;2.00;0.50;;;;;;;-146.61;100.00;58846.50;5095652;27;20710;-77
2023/10/22 05:52:16;;;;;;;3.05;0.60;;;;;;;-146.61;100.00;58846.50;5098219;27;20055;-78
2023/10/22 05:55:03;;;;;;;4.32;0.40;;;;;;;-146.61;100.00;58846.50;5100859;27;20079;-77
2023/10/22 05:57:50;;;;;;;4.13;0.85;;;;;;;-146.61;100.00;58846.50;5096270;27;20043;-76
2023/10/22 06:00:38;;;;;;;4.38;0.40;;;;;;;-146.61;100.00;58846.50;5094135;27;20636;-79
2023/10/22 06:03:24;;;;;;;3.25;0.68;;;;;;;-146.61;100.00;58846.50;5094903;27;20048;-78
2023/10/22 06:06:11;;;;;;;2.38;0.50;;;;;;;-146.61;100.00;58846.50;5098081;27;20040;-78
2023/10/22 06:08:58;;;;;;;3.55;0.57;;;;;;;-146.61;100.00;58846.50;5096792;27;20127;-78
2023/10/22 06:11:45;;;;;;;1.65;0.50;;;;;;;-146.61;100.00;58846.50;5111628;27;20055;-77
2023/10/22 06:14:33;;;;;;;2.92;0.85;;;;;;;-146.61;100.00;58846.50;5115542;27;20043;-77
2023/10/22 06:17:20;;;;;;;2.40;0.57;;;;;;;-146.61;100.00;58846.50;5114297;27;20051;-79
2023/10/22 06:20:07;;;;;;;3.35;0.50;;;;;;;-146.61;100.00;58846.50;5118529;27;20047;-81
2023/10/22 06:22:54;;;;;;;1.83;0.50;;;;;;;-146.61;100.00;58846.50;5114854;27;20769;-79
2023/10/22 06:25:44;;;;;;;5.50;0.80;;;;;;;-146.61;100.00;58846.50;5120639;27;20051;-78
2023/10/22 06:28:31;;;;;;;0.55;0.43;;;;;;;-146.61;100.00;58846.50;5113951;27;20046;-79
2023/10/22 06:31:18;;;;;;;1.58;0.65;;;;;;;-146.61;100.00;58846.50;5110590;27;20173;-76
2023/10/22 06:34:04;;;;;;;2.95;0.47;;;;;;;-146.61;100.00;58846.50;5117373;27;20058;-79
2023/10/22 06:36:52;;;;;;;2.15;0.90;;;;;;;-146.61;100.00;58846.50;5115439;27;20618;-77
2023/10/22 06:39:39;;;;;;;5.15;0.80;;;;;;;-146.61;100.00;58846.50;5115304;27;20062;-77
2023/10/22 06:42:26;;;;;;;6.80;0.63;;;;;;;-146.61;100.00;58846.50;5113807;27;20095;-78
2023/10/22 06:45:14;;;;;;;2.00;0.47;;;;;;;-146.61;100.00;58846.50;5116944;27;20112;-78
2023/10/22 06:48:03;;;;;;;1.95;0.63;;;;;;;-146.61;100.00;58846.50;5110333;27;20118;-79
2023/10/22 06:50:49;;;;;;;1.23;0.30;;;;;;;-146.61;100.00;58846.50;5117355;27;20055;-76
2023/10/22 06:53:36;;;;;;;2.10;0.68;;;;;;;-146.61;100.00;58846.50;5115654;27;20047;-78
2023/10/22 06:56:23;;;;;;;5.72;0.82;;;;;;;-146.61;100.00;58846.50;5118316;27;20035;-79
2023/10/22 06:59:10;;;;;;;0.73;0.30;;;;;;;-146.61;100.00;58846.50;5114857;27;20039;-78
2023/10/22 07:01:56;;;;;;;2.30;0.73;;;;;;;-146.61;100.00;58846.50;5123640;27;20431;-79
2023/10/22 07:04:44;;;;;;;3.05;0.65;;;;;;;-146.61;100.00;58846.50;5116280;27;20463;-78
2023/10/22 07:07:31;;;;;;;4.45;1.10;;;;;;;-146.61;100.00;58846.50;5113759;27;20171;-80
2023/10/22 07:10:18;;;;;;;4.55;0.80;;;;;;;-146.61;100.00;58846.50;5112002;27;20051;-79
2023/10/22 07:13:04;;;;;;;7.05;0.80;;;;;;;-146.61;100.00;58846.50;5113968;27;20150;-81
2023/10/22 07:15:52;;;;;;;2.10;0.50;;;;;;;-146.61;100.00;58846.50;5116133;27;20039;-79
2023/10/22 07:18:39;;;;;;;3.47;0.73;;;;;;;-146.61;100.00;58846.50;5121582;27;20046;-77
2023/10/22 07:21:26;;;;;;;2.38;0.65;;;;;;;-146.61;100.00;58846.50;5115284;27;20046;-80
2023/10/22 07:24:13;;;;;;;3.83;0.30;;;;;;;-146.61;100.00;58846.50;5115694;27;20039;-77
2023/10/22 07:26:59;;;;;;;2.90;0.68;;;;;;;-146.61;100.00;58846.50;5113725;27;20044;-78
2023/10/22 07:29:46;;;;;;;3.45;0.60;;;;;;;-146.61;100.00;58846.50;5111528;27;20039;-79
2023/10/22 07:32:33;;;;;;;1.65;0.57;;;;;;;-146.61;100.00;58846.50;5112254;27;20054;-77
2023/10/22 07:35:20;;;;;;;1.55;0.45;;;;;;;-146.61;100.00;58846.50;5118709;27;20059;-75
2023/10/22 07:38:07;;;;;;;2.67;0.75;;;;;;;-146.61;100.00;58846.50;5118721;27;20043;-79
2023/10/22 07:40:55;;;;;;;0.85;0.30;;;;;;;-146.61;100.00;58846.50;5112496;27;20140;-78
2023/10/22 07:43:42;;;;;;;2.85;0.32;;;;;;;-146.61;100.00;58846.50;5114518;27;20242;-79
2023/10/22 07:46:29;;;;;;;0.70;0.40;;;;;;;-146.61;100.00;58846.50;5114496;27;20051;-80
2023/10/22 07:49:16;;;;;;;0.63;0.20;;;;;;;-146.61;100.00;58846.50;5113748;27;20585;-79
2023/10/22 07:52:03;;;;;;;2.00;0.30;;;;;;;-146.61;100.00;58846.50;5112285;27;20059;-78
2023/10/22 07:54:52;;;;;;;2.75;0.80;;;;;;;-146.61;100.00;58846.50;5113536;27;20039;-80
2023/10/22 07:57:42;;;;;;;2.58;0.45;;;;;;;-146.61;100.00;58846.50;5108183;27;20721;-79
2023/10/22 08:00:28;;;;;;;7.70;0.77;;;;;;;-146.61;100.00;58846.50;5113624;27;20050;-80
2023/10/22 08:03:15;;;;;;;4.40;1.17;;;;;;;-146.61;100.00;58846.50;5110696;27;20046;-78
2023/10/22 08:06:04;;;;;;;3.00;0.40;;;;;;;-146.61;100.00;58846.50;5112236;27;20281;-78
2023/10/22 08:08:54;;;;;;;3.42;1.23;;;;;;;-146.61;100.00;58846.50;5111366;27;20043;-77
2023/10/22 08:11:41;;;;;;;1.65;0.93;;;;;;;-146.61;100.00;58846.50;5111868;27;20048;-77
2023/10/22 08:14:27;;;;;;;1.95;1.05;;;;;;;-146.61;100.00;58846.50;5115219;27;20333;-78
2023/10/22 08:17:14;;;;;;;6.30;0.68;;;;;;;-146.61;100.00;58846.50;5115060;27;20094;-76
2023/10/22 08:20:01;;;;;;;3.78;1.20;;;;;;;-146.61;100.00;58846.50;5115274;27;20565;-79
2023/10/22 08:22:50;;;;;;;1.73;0.40;;;;;;;-146.61;100.00;58846.50;5115572;27;20086;-80
2023/10/22 08:25:37;;;;;;;4.68;0.85;;;;;;;-146.61;100.00;58846.50;5111665;27;20594;-80
2023/10/22 08:28:25;;;;;;;0.65;0.40;;;;;;;-146.61;100.00;58846.50;5113995;27;20446;-78
2023/10/22 08:31:14;;;;;;;4.03;0.50;;;;;;;-146.61;100.00;58846.50;5120767;27;20051;-78
2023/10/22 08:34:02;;;;;;;0.77;0.47;;;;;;;-146.61;100.00;58846.50;5121593;27;20704;-76
2023/10/22 08:36:49;;;;;;;1.20;0.50;;;;;;;-146.61;100.00;58846.50;5118686;27;20674;-77
2023/10/22 08:39:38;;;;;;;1.73;0.32;;;;;;;-146.61;100.00;58846.50;5119866;27;20059;-78
2023/10/22 08:42:25;;;;;;;3.42;0.68;;;;;;;-146.61;100.00;58846.50;5119801;27;20042;-77
2023/10/22 08:45:12;;;;;;;2.55;0.43;;;;;;;-146.61;100.00;58846.50;5124697;27;20773;-79
2023/10/22 08:48:03;;;;;;;3.00;0.50;;;;;;;-146.61;100.00;58846.50;5113594;27;20047;-76
2023/10/22 08:50:52;;;;;;;3.97;0.50;;;;;;;-146.61;100.00;58846.50;5113970;27;20265;-79
2023/10/22 08:53:39;;;;;;;0.20;0.20;;;;;;;-146.61;100.00;58846.50;5118383;27;20288;-77
2023/10/22 08:56:26;;;;;;;2.55;0.45;;;;;;;-146.61;100.00;58846.50;5109716;27;20051;-79
2023/10/22 08:59:13;;;;;;;2.80;0.20;;;;;;;-146.61;100.00;58846.50;5115812;27;20105;-78
2023/10/22 09:02:00;;;;;;;2.97;0.45;;;;;;;-146.61;100.00;58846.50;5121831;27;20046;-80
2023/10/22 09:04:47;;;;;;;1.60;0.40;;;;;;;-146.61;100.00;58846.50;5114262;27;20051;-77
2023/10/22 09:07:53;;;;;;;0.60;0.30;;;;;;;-146.61;100.00;58846.50;5117747;27;20081;-80
2023/10/22 09:10:40;;;;;;;0.82;0.20;;;;;;;-146.61;100.00;58846.50;5109622;27;20052;-80
2023/10/22 09:13:27;;;;;;;0.88;0.30;;;;;;;-146.61;100.00;58846.50;5096093;27;20040;-79
2023/10/22 09:16:31;;;;;;;4.28;0.88;;;;;;;-146.61;100.00;58846.50;5099590;27;20870;-78
2023/10/22 09:19:39;;;;;;;2.88;0.80;;;;;;;-146.61;100.00;58846.50;5106724;27;20115;-79
2023/10/22 09:22:30;;;;;;;0.85;0.30;;;;;;;-146.61;100.00;58846.50;5107327;27;20078;-78
2023/10/22 09:25:18;;;;;;;2.30;0.20;;;;;;;-146.61;100.00;58846.50;5098340;27;20074;-77
2023/10/22 09:28:24;;;;;;;2.65;0.82;;;;;;;-146.61;100.00;58846.50;5098577;27;20210;-79
2023/10/22 09:31:11;;;;;;;1.70;0.25;;;;;;;-146.61;100.00;58846.50;5106538;27;20050;-78
2023/10/22 09:33:57;;;;;;;0.50;0.47;;;;;;;-146.61;100.00;58846.50;5095645;27;20339;-79
2023/10/22 09:36:57;;;;;;;5.40;0.40;;;;;;;-146.61;100.00;58846.50;5097476;27;20081;-80
2023/10/22 09:39:45;;;;;;;2.22;0.75;;;;;;;-146.61;100.00;58846.50;5095950;27;20710;-80
2023/10/22 09:42:36;;;;;;;1.65;0.40;;;;;;;-146.61;100.00;58846.50;5093238;28;20040;-81
2023/10/22 09:45:25;;;;;;;3.88;0.60;;;;;;;-146.61;100.00;58846.50;5098199;27;20703;-79
2023/10/22 09:48:15;;;;;;;2.15;0.40;;;;;;;-146.61;100.00;58846.50;5104688;27;20078;-79
2023/10/22 09:51:06;;;;;;;0.60;0.40;;;;;;;-146.61;100.00;58846.50;5095528;27;20310;-81
2023/10/22 09:53:54;;;;;;;2.05;0.70;;;;;;;-146.61;100.00;58846.50;5100711;27;20563;-78
2023/10/22 09:56:53;;;;;;;1.30;1.20;;;;;;;-146.61;100.00;58846.50;5094643;27;20044;-78
2023/10/22 09:59:44;;;;;;;4.32;0.60;;;;;;;-146.61;100.00;58846.50;5097219;27;20118;-78
2023/10/22 10:02:33;;;;;;;0.70;0.43;;;;;;;-146.61;100.00;58846.50;5097995;27;20047;-80
2023/10/22 10:05:21;;;;;;;2.15;0.38;;;;;;;-146.61;100.00;58846.50;5101303;27;20044;-78
2023/10/22 10:08:10;;;;;;;1.67;0.30;;;;;;;-146.61;100.00;58846.50;5093187;27;20043;-80
2023/10/22 10:10:57;;;;;;;1.83;0.20;;;;;;;-146.61;100.00;58846.50;5106604;27;20631;-77
2023/10/22 10:13:47;;;;;;;2.47;0.40;;;;;;;-146.61;100.00;58846.50;5115569;27;20039;-79
2023/10/22 10:16:34;;;;;;;1.90;0.50;;;;;;;-146.61;100.00;58846.50;5117104;27;20046;-78
2023/10/22 10:19:22;;;;;;;1.50;0.47;;;;;;;-146.61;100.00;58846.50;5116561;27;20207;-80
2023/10/22 10:22:11;;;;;;;1.33;0.32;;;;;;;-146.61;100.00;58846.50;5126174;27;20110;-77
2023/10/22 10:25:27;;;;;;;3.35;0.50;;;;;;;-146.61;100.00;58846.50;5124855;27;20444;-76
2023/10/22 10:28:14;;;;;;;2.90;0.80;;;;;;;-146.61;100.00;58846.50;5112324;27;20035;-79
2023/10/22 10:31:30;;;;;;;4.05;0.70;;;;;;;-146.61;100.00;58846.50;5113507;27;20208;-79
2023/10/22 10:34:40;;;;;;;0.65;0.55;;;;;;;-146.61;100.00;58846.50;5121518;27;20055;-79
2023/10/22 10:37:27;;;;;;;0.73;0.73;;;;;;;-146.61;100.00;58846.50;5114664;27;20120;-76
2023/10/22 10:40:43;;;;;;;0.45;0.28;;;;;;;-146.61;100.00;58846.50;5116341;27;20058;-76
2023/10/22 10:44:09;;;;;;;1.42;0.98;;;;;;;-146.61;100.00;58846.50;5119172;27;20039;-80
2023/10/22 10:47:21;;;;;;;1.48;0.20;;;;;;;-146.61;100.00;58846.50;5112911;27;20039;-81
2023/10/22 10:50:12;;;;;;;1.98;0.28;;;;;;;-146.61;100.00;58846.50;5116270;27;20184;-76
2023/10/22 10:53:02;;;;;;;3.95;0.47;;;;;;;-146.61;100.00;58846.50;5113651;27;20531;-77
2023/10/22 10:55:50;;;;;;;0.98;0.30;;;;;;;-146.61;100.00;58846.50;5118916;27;20043;-78
2023/10/22 10:58:44;;;;;;;0.30;0.20;;;;;;;-146.61;100.00;58846.50;5114698;27;20073;-78
2023/10/22 11:01:30;;;;;;;;;;;;;;;-146.61;100.00;58846.50;5116324;27;20043;-79
2023/10/22 11:04:17;;;;;;;1.13;0.28;;;;;;;-146.61;100.00;58846.50;5113976;27;19947;-79
2023/10/22 11:07:05;;;;;;;0.20;0.17;;;;;;;-146.61;100.00;58846.50;5113151;27;20852;-80
2023/10/22 11:09:52;;;;;;;1.98;0.30;;;;;;;-146.61;100.00;58846.50;5113105;27;20050;-80
2023/10/22 11:12:39;;;;;;;1.55;0.30;;;;;;;-146.61;100.00;58846.50;5092768;27;20032;-80
2023/10/22 11:15:31;;;;;;;2.08;1.00;;;;;;;-146.61;100.00;58846.50;5088842;27;20043;-78
2023/10/22 11:18:18;;;;;;;0.70;0.70;;;;;;;-146.61;100.00;58846.50;5089706;27;20047;-80
2023/10/22 11:21:05;;;;;;;1.90;0.70;;;;;;;-146.61;100.00;58846.50;5095014;27;20043;-79
2023/10/22 11:23:52;;;;;;;0.10;0.10;;;;;;;-146.61;100.00;58846.50;5098179;27;20062;-81
2023/10/22 11:26:38;;;;;;;1.50;0.45;;;;;;;-146.61;100.00;58846.50;5097379;27;20466;-78
2023/10/22 11:29:25;;;;;;;5.60;1.67;;;;;;;-146.61;100.00;58846.50;5097771;27;20048;-79
2023/10/22 11:32:16;;;;;;;1.83;0.55;;;;;;;-146.61;100.00;58846.50;5103226;27;20258;-78
2023/10/22 11:35:07;;;;;;;0.95;0.73;;;;;;;-146.61;100.00;58846.50;5105622;27;20079;-78
2023/10/22 11:37:54;;;;;;;1.35;0.20;;;;;;;-146.61;100.00;58846.50;5091032;27;20399;-77
2023/10/22 11:40:41;;;;;;;2.10;1.42;;;;;;;-146.61;100.00;58846.50;5095045;28;20044;-79
2023/10/22 11:43:28;;;;;;;1.20;0.50;;;;;;;-146.61;100.00;58846.50;5099059;27;20479;-79
2023/10/22 11:46:14;;;;;;;1.92;1.20;;;;;;;-146.61;100.00;58846.50;5096851;28;20489;-78
2023/10/22 11:49:01;;;;;;;1.02;0.73;;;;;;;-146.61;100.00;58846.50;5093491;28;20266;-79
2023/10/22 11:51:48;;;;;;;2.58;0.32;;;;;;;-146.61;100.00;58846.50;5096687;27;20055;-78
2023/10/22 11:54:44;;;;;;;1.23;1.13;;;;;;;-146.61;100.00;58846.50;5098237;28;20192;-79
2023/10/22 11:57:32;;;;;;;0.20;0.20;;;;;;;-146.61;100.00;58846.50;5089786;27;20445;-78
2023/10/22 12:00:19;;;;;;;1.45;0.35;;;;;;;-146.61;100.00;58846.50;5089934;27;20044;-77
2023/10/22 12:03:05;;;;;;;3.40;0.20;;;;;;;-146.61;100.00;58846.50;5094553;27;20050;-81
2023/10/22 12:05:52;;;;;;;0.17;0.17;;;;;;;-146.61;100.00;58846.50;5097332;28;20036;-79
2023/10/22 12:08:39;;;;;;;2.10;0.60;;;;;;;-146.61;100.00;58846.50;5093436;28;20138;-79
2023/10/22 12:11:26;;;;;;;4.13;0.40;;;;;;;-146.61;100.00;58846.50;5107006;27;20047;-79
2023/10/22 12:14:12;;;;;;;0.20;0.20;;;;;;;-146.61;100.00;58846.50;5123940;27;20051;-77
2023/10/22 12:16:59;;;;;;;0.50;0.30;;;;;;;-146.61;100.00;58846.50;5115954;27;20146;-76
2023/10/22 12:19:46;;;;;;;0.20;0.10;;;;;;;-146.61;100.00;58846.50;5115164;27;20036;-79
2023/10/22 12:22:32;;;;;;;0.30;0.10;;;;;;;-146.61;100.00;58846.50;5112621;27;20043;-79
2023/10/22 12:25:19;;;;;;;2.97;1.67;;;;;;;-146.61;100.00;58846.50;5114689;27;20044;-79
2023/10/22 12:28:06;;;;;;;1.45;0.75;;;;;;;-146.61;100.00;58846.50;5118131;27;20051;-78
2023/10/22 12:30:53;;;;;;;4.22;0.30;;;;;;;-146.61;100.00;58846.50;5109954;27;20703;-80
2023/10/22 12:33:39;;;;;;;0.20;0.20;;;;;;;-146.61;100.00;58846.50;5117111;27;20047;-78
2023/10/22 12:36:26;;;;;;;1.20;0.38;;;;;;;-146.61;100.00;58846.50;5113239;27;20054;-79
2023/10/22 12:39:14;;;;;;;0.63;0.60;;;;;;;-146.61;100.00;58846.50;5113657;27;20538;-79
2023/10/22 12:42:03;;;;;;;0.63;0.63;;;;;;;-146.61;100.00;58846.50;5115214;27;20043;-78
2023/10/22 12:44:49;;;;;;;0.10;0.10;;;;;;;-146.61;100.00;58846.50;5119738;27;20043;-77